Time;durP1;ratioP1;P1;durP2;ratioP2;P2;SDS_P1;SDS_P2;PMS_P1;PMS_P2;Temp;Humidity;BMP_temperature;BMP_pressure;BME280_temperature;BME280_humidity;BME280_pressure;Samples;Min_cycle;Max_cycle;Signal;HPM_P1;HPM_P2
2023/09/10 00:00:06;;;;;;;8.10;3.72;;;;;;;20.49;47.92;100145.34;7685027;32;38719;-88
2023/09/10 00:04:22;;;;;;;6.93;3.70;;;;;;;20.66;47.41;100140.91;7685466;32;37094;-88
2023/09/10 00:08:38;;;;;;;9.05;3.90;;;;;;;20.61;47.54;100141.87;7685390;32;38931;-88
2023/09/10 00:12:55;;;;;;;6.37;3.58;;;;;;;20.58;47.72;100140.59;7685346;32;40856;-88
2023/09/10 00:17:12;;;;;;;9.82;3.95;;;;;;;20.45;48.12;100136.06;7685172;32;38837;-88
2023/09/10 00:21:28;;;;;;;5.87;3.35;;;;;;;20.49;48.51;100137.03;7684755;32;37262;-88
2023/09/10 00:25:44;;;;;;;9.43;3.75;;;;;;;20.34;48.86;100143.91;7685145;32;39012;-89
2023/09/10 00:30:01;;;;;;;6.00;3.72;;;;;;;20.33;48.97;100147.00;7685163;32;39945;-88
2023/09/10 00:34:17;;;;;;;8.00;3.90;;;;;;;20.43;49.02;100139.16;7684983;32;38001;-89
2023/09/10 00:38:33;;;;;;;8.02;4.25;;;;;;;20.23;50.14;100137.06;7684983;32;37831;-88
2023/09/10 00:42:50;;;;;;;7.47;4.28;;;;;;;20.19;50.74;100141.66;7684867;32;39332;-88
2023/09/10 00:47:07;;;;;;;7.72;3.78;;;;;;;20.23;50.02;100135.13;7684895;32;41335;-89
2023/09/10 00:51:24;;;;;;;9.38;5.03;;;;;;;20.22;49.54;100132.69;7683549;32;38664;-88
2023/09/10 00:55:40;;;;;;;21.37;12.43;;;;;;;20.26;50.29;100131.72;7683752;32;37145;-89
2023/09/10 00:59:57;;;;;;;23.42;12.77;;;;;;;20.23;50.38;100126.84;7683986;32;39028;-89
2023/09/10 01:04:14;;;;;;;12.15;6.47;;;;;;;20.12;50.61;100133.03;7682151;32;39820;-89
2023/09/10 01:08:31;;;;;;;7.07;3.90;;;;;;;20.00;50.95;100130.94;7684946;32;38810;-87
2023/09/10 01:12:53;;;;;;;8.57;4.03;;;;;;;19.96;50.68;100129.97;7684421;32;37834;-88
2023/09/10 01:17:13;;;;;;;8.23;4.75;;;;;;;20.06;50.28;100135.16;7683812;32;39376;-88
2023/09/10 01:21:40;;;;;;;7.20;3.83;;;;;;;20.12;50.35;100144.09;7684473;32;39910;-88
2023/09/10 01:25:57;;;;;;;7.03;4.12;;;;;;;19.98;50.67;100138.75;7684629;32;37696;-86
2023/09/10 01:30:13;;;;;;;5.03;3.50;;;;;;;19.77;51.49;100133.88;7684437;32;38249;-89
2023/09/10 01:34:37;;;;;;;8.18;4.00;;;;;;;19.97;50.94;100134.34;7684239;32;39293;-88
2023/09/10 01:39:11;;;;;;;6.47;4.12;;;;;;;19.86;51.10;100120.03;7684345;32;39982;-89
2023/09/10 01:43:28;;;;;;;10.80;4.03;;;;;;;19.95;51.13;100131.09;7682348;32;37835;-88
2023/09/10 01:47:44;;;;;;;8.05;4.07;;;;;;;20.03;51.12;100133.03;7683893;32;37703;-88
2023/09/10 01:52:01;;;;;;;5.68;3.80;;;;;;;19.97;51.21;100126.03;7683830;32;39403;-89
2023/09/10 01:56:17;;;;;;;13.00;6.68;;;;;;;19.92;51.18;100128.97;7683756;32;39984;-89
2023/09/10 02:00:34;;;;;;;14.02;7.40;;;;;;;19.96;51.56;100133.53;7683247;32;38731;-88
2023/09/10 02:04:50;;;;;;;8.82;5.22;;;;;;;19.84;52.10;100139.72;7683052;32;37132;-88
2023/09/10 02:09:06;;;;;;;8.35;4.65;;;;;;;19.65;52.54;100131.72;7683133;32;39914;-88
2023/09/10 02:13:23;;;;;;;7.57;4.45;;;;;;;19.63;52.30;100131.22;7683291;32;39773;-88
2023/09/10 02:17:39;;;;;;;6.47;3.95;;;;;;;19.37;52.92;100133.97;7686497;32;38824;-88
2023/09/10 02:21:57;;;;;;;7.37;4.18;;;;;;;19.38;52.93;100132.81;7686554;32;37768;-88
2023/09/10 02:26:15;;;;;;;9.20;4.18;;;;;;;19.30;52.91;100130.88;7686438;32;40102;-89
2023/09/10 02:30:32;;;;;;;6.82;3.60;;;;;;;19.46;52.51;100128.44;7660214;32;40588;-89
2023/09/10 02:34:49;;;;;;;6.65;3.87;;;;;;;19.57;52.55;100126.19;7659953;32;38517;-89
2023/09/10 02:39:05;;;;;;;9.07;4.47;;;;;;;19.33;53.35;100125.50;7667927;32;37151;-89
2023/09/10 02:43:22;;;;;;;7.22;4.15;;;;;;;19.37;53.35;100136.72;7686339;32;39248;-89
2023/09/10 02:47:38;;;;;;;7.35;4.25;;;;;;;19.27;54.15;100131.50;7686347;32;40029;-89
2023/09/10 02:51:55;;;;;;;11.40;4.57;;;;;;;19.29;54.01;100120.94;7685979;32;37697;-89
2023/09/10 02:56:11;;;;;;;7.72;4.20;;;;;;;19.23;54.12;100122.22;7686149;32;37393;-89
2023/09/10 03:00:27;;;;;;;9.77;4.07;;;;;;;19.25;53.95;100118.00;7686060;32;40214;-90
2023/09/10 03:04:44;;;;;;;7.37;4.10;;;;;;;19.21;54.16;100114.25;7685560;32;40102;-88
2023/09/10 03:09:00;;;;;;;7.18;3.97;;;;;;;19.33;53.82;100113.62;7685944;32;37732;-88
2023/09/10 03:13:16;;;;;;;8.63;4.75;;;;;;;19.34;53.78;100112.50;7686207;32;36764;-89
2023/09/10 03:17:33;;;;;;;8.00;4.45;;;;;;;19.20;54.33;100120.12;7686033;32;40085;-89
2023/09/10 03:21:49;;;;;;;7.50;4.50;;;;;;;19.19;54.38;100124.00;7685852;32;40013;-89
2023/09/10 03:26:09;;;;;;;8.63;4.32;;;;;;;19.25;54.25;100123.53;7684996;32;37907;-89
2023/09/10 03:30:25;;;;;;;8.38;5.00;;;;;;;19.13;54.80;100121.41;7684692;32;37087;-89
2023/09/10 03:34:42;;;;;;;7.87;4.47;;;;;;;19.40;54.32;100119.47;7684469;32;39354;-88
2023/09/10 03:38:58;;;;;;;7.95;4.50;;;;;;;19.20;54.68;100114.59;7685537;32;40718;-88
2023/09/10 03:43:16;;;;;;;9.32;4.72;;;;;;;18.97;55.40;100111.91;7685517;32;38469;-88
2023/09/10 03:47:33;;;;;;;7.65;4.20;;;;;;;19.09;55.18;100109.38;7684468;32;36742;-88
2023/09/10 03:51:51;;;;;;;9.50;4.68;;;;;;;18.94;55.61;100115.34;7685552;32;40204;-88
2023/09/10 03:56:07;;;;;;;8.65;5.05;;;;;;;18.96;56.11;100118.59;7685579;32;40778;-89
2023/09/10 04:00:23;;;;;;;9.15;5.10;;;;;;;18.87;55.85;100115.78;7685003;32;37949;-89
2023/09/10 04:04:41;;;;;;;8.35;4.75;;;;;;;18.93;55.76;100127.50;7685508;32;37156;-89
2023/09/10 04:08:57;;;;;;;9.10;4.80;;;;;;;18.78;56.18;100120.41;7684314;32;39298;-89
2023/09/10 04:13:14;;;;;;;8.40;4.72;;;;;;;18.67;56.56;100114.38;7685247;32;40281;-90
2023/09/10 04:17:30;;;;;;;8.15;4.93;;;;;;;18.68;56.43;100110.50;7685311;32;39185;-88
2023/09/10 04:21:46;;;;;;;7.03;4.53;;;;;;;18.78;56.00;100114.91;7684026;32;37000;-88
2023/09/10 04:26:03;;;;;;;8.80;5.05;;;;;;;18.69;56.63;100122.34;7685275;32;40021;-88
2023/09/10 04:30:19;;;;;;;8.77;4.95;;;;;;;18.67;56.58;100114.38;7685231;32;39965;-88
2023/09/10 04:34:35;;;;;;;12.23;4.50;;;;;;;18.75;56.08;100105.31;7685083;32;38546;-89
2023/09/10 04:38:54;;;;;;;11.68;5.47;;;;;;;18.64;56.50;100126.03;7688077;32;37122;-88
2023/09/10 04:43:10;;;;;;;7.03;4.05;;;;;;;18.59;56.83;100123.44;7679628;32;170620;-88
2023/09/10 04:47:26;;;;;;;8.43;4.60;;;;;;;18.64;56.68;100123.28;7685014;32;40819;-89
2023/09/10 04:51:43;;;;;;;10.48;4.57;;;;;;;18.60;57.04;100129.78;7685229;32;38023;-89
2023/09/10 04:55:59;;;;;;;7.18;4.70;;;;;;;18.69;56.77;100130.62;7684927;32;37158;-89
2023/09/10 05:00:16;;;;;;;14.82;7.18;;;;;;;18.63;57.11;100132.72;7683944;32;40083;-88
2023/09/10 05:04:32;;;;;;;11.40;5.90;;;;;;;18.75;57.24;100132.13;7684788;32;39733;-89
2023/09/10 05:08:49;;;;;;;10.90;6.00;;;;;;;18.79;57.42;100146.09;7684656;32;37706;-89
2023/09/10 05:13:05;;;;;;;9.93;5.85;;;;;;;18.77;57.52;100143.66;7684827;32;36945;-89
2023/09/10 05:17:21;;;;;;;16.17;7.50;;;;;;;18.97;56.96;100145.06;7684377;32;39357;-86
2023/09/10 05:21:37;;;;;;;8.85;4.80;;;;;;;18.95;57.17;100142.63;7683622;32;40710;-89
2023/09/10 05:25:54;;;;;;;10.10;5.47;;;;;;;19.04;57.18;100153.72;7684292;32;38106;-88
2023/09/10 05:30:12;;;;;;;9.88;5.12;;;;;;;19.05;57.43;100155.34;7684415;32;37861;-86
2023/09/10 05:34:30;;;;;;;9.40;4.85;;;;;;;19.00;57.86;100155.47;7704086;32;38870;-86
2023/09/10 05:38:46;;;;;;;9.80;4.90;;;;;;;19.22;57.23;100156.53;7696571;32;40970;-83
2023/09/10 05:43:03;;;;;;;12.02;7.28;;;;;;;19.24;57.93;100154.25;7685771;32;38519;-84
2023/09/10 05:47:20;;;;;;;17.02;8.38;;;;;;;19.41;57.21;100157.06;7684439;32;37394;-84
2023/09/10 05:51:36;;;;;;;17.30;8.70;;;;;;;19.43;57.28;100160.31;7683480;32;39828;-84
2023/09/10 05:55:53;;;;;;;13.77;8.65;;;;;;;19.55;57.07;100169.94;7685224;32;40733;-85
2023/09/10 06:00:09;;;;;;;10.55;6.62;;;;;;;19.72;56.81;100164.41;7683448;32;38062;-84
2023/09/10 06:04:27;;;;;;;11.38;5.80;;;;;;;19.95;56.37;100156.00;7683462;32;37057;-85
2023/09/10 06:08:43;;;;;;;10.05;4.87;;;;;;;20.01;56.53;100165.78;7683401;32;39424;-70
2023/09/10 06:13:00;;;;;;;10.02;4.40;;;;;;;20.39;56.27;100162.31;7683306;32;39895;-71
2023/09/10 06:17:16;;;;;;;13.55;4.50;;;;;;;21.13;56.55;100152.78;7682297;32;39015;-71
2023/09/10 06:21:33;;;;;;;6.90;4.60;;;;;;;21.36;53.53;100158.84;7683038;32;36906;-70
2023/09/10 06:25:50;;;;;;;9.65;4.50;;;;;;;21.74;51.81;100162.69;7681780;32;39451;-70
2023/09/10 06:30:06;;;;;;;8.75;5.00;;;;;;;21.98;50.10;100161.22;7681609;32;40025;-70
2023/09/10 06:34:23;;;;;;;9.88;4.97;;;;;;;22.07;51.26;100165.50;7680973;32;37946;-70
2023/09/10 06:38:40;;;;;;;7.40;4.37;;;;;;;21.81;52.22;100173.25;7681570;32;37920;-71
2023/09/10 06:42:56;;;;;;;7.10;4.70;;;;;;;21.88;51.37;100166.00;7681967;32;39137;-74
2023/09/10 06:47:13;;;;;;;11.65;4.55;;;;;;;21.99;52.25;100169.19;7680396;32;39926;-70
2023/09/10 06:51:29;;;;;;;9.70;5.12;;;;;;;21.91;52.97;100175.63;7682421;32;38019;-70
2023/09/10 06:55:45;;;;;;;7.72;4.25;;;;;;;21.58;53.32;100179.13;7682315;32;37017;-70
2023/09/10 07:00:02;;;;;;;9.45;4.82;;;;;;;21.56;53.90;100175.87;7682674;32;39278;-71
2023/09/10 07:04:20;;;;;;;7.93;4.97;;;;;;;21.93;51.67;100181.66;7684614;32;40581;-71
2023/09/10 07:08:37;;;;;;;8.18;4.25;;;;;;;22.21;51.26;100169.97;7685994;32;37658;-79
2023/09/10 07:12:54;;;;;;;7.35;4.25;;;;;;;22.45;50.40;100172.06;7685310;32;38146;-79
2023/09/10 07:17:10;;;;;;;8.63;4.97;;;;;;;22.42;50.44;100176.34;7685849;32;40574;-73
2023/09/10 07:21:27;;;;;;;8.77;5.20;;;;;;;22.75;49.68;100178.28;7685407;32;39941;-79
2023/09/10 07:25:44;;;;;;;10.20;4.10;;;;;;;23.05;49.37;100178.91;7685161;32;38884;-79
2023/09/10 07:30:01;;;;;;;10.63;4.50;;;;;;;23.25;48.65;100179.97;7685727;32;36956;-79
2023/09/10 07:34:18;;;;;;;8.05;4.82;;;;;;;23.15;49.37;100180.41;7685680;32;39428;-79
2023/09/10 07:38:34;;;;;;;8.32;4.45;;;;;;;23.21;49.08;100167.88;7685619;32;39878;-80
2023/09/10 07:42:51;;;;;;;8.05;4.90;;;;;;;23.57;47.88;100169.00;7685411;32;38094;-80
2023/09/10 07:47:09;;;;;;;7.47;4.30;;;;;;;23.77;47.65;100161.69;7685560;32;37398;-81
2023/09/10 07:51:25;;;;;;;8.55;4.32;;;;;;;24.03;47.64;100165.22;7685618;32;40250;-81
2023/09/10 07:55:41;;;;;;;7.30;4.50;;;;;;;24.05;46.78;100165.69;7685143;32;40763;-82
2023/09/10 07:59:58;;;;;;;12.50;4.90;;;;;;;24.16;46.36;100167.62;7684638;32;38741;-82
2023/09/10 08:04:14;;;;;;;8.18;4.40;;;;;;;24.19;46.38;100166.88;7685100;32;37210;-80
2023/09/10 08:08:31;;;;;;;9.02;4.75;;;;;;;24.61;45.99;100159.28;7685046;32;39270;-81
2023/09/10 08:12:47;;;;;;;10.57;4.53;;;;;;;24.82;45.43;100159.00;7684482;32;40018;-80
2023/09/10 08:17:03;;;;;;;10.20;4.62;;;;;;;25.03;45.35;100153.19;7681819;32;38020;-81
2023/09/10 08:21:20;;;;;;;10.75;4.62;;;;;;;25.21;44.55;100150.81;7682252;32;36875;-80
2023/09/10 08:25:36;;;;;;;9.57;4.37;;;;;;;25.66;44.00;100155.87;7682013;32;38994;-81
2023/09/10 08:29:52;;;;;;;7.82;4.57;;;;;;;25.43;44.37;100154.94;7683570;32;40737;-80
2023/09/10 08:34:09;;;;;;;7.85;4.25;;;;;;;25.90;43.34;100144.78;7684938;32;38073;-81
2023/09/10 08:38:26;;;;;;;9.77;3.95;;;;;;;26.59;41.92;100142.94;7685199;32;37386;-82
2023/09/10 08:42:46;;;;;;;7.18;4.12;;;;;;;26.93;40.94;100145.97;7684905;32;40116;-81
2023/09/10 08:47:05;;;;;;;7.75;4.07;;;;;;;26.82;40.99;100135.78;7685014;32;40695;-81
2023/09/10 08:51:21;;;;;;;8.23;4.20;;;;;;;27.15;39.52;100135.13;7685018;32;37098;-81
2023/09/10 08:55:38;;;;;;;7.93;3.95;;;;;;;27.32;38.22;100134.63;7684814;32;37154;-82
2023/09/10 08:59:55;;;;;;;10.23;4.57;;;;;;;27.50;37.76;100129.25;7683417;32;39116;-82
2023/09/10 09:04:12;;;;;;;8.88;4.25;;;;;;;27.17;38.40;100136.34;7683425;32;40871;-82
2023/09/10 09:08:34;;;;;;;7.85;4.00;;;;;;;27.41;40.04;100127.94;7684648;32;38646;-81
2023/09/10 09:12:55;;;;;;;6.78;3.90;;;;;;;27.53;38.59;100127.72;7684647;32;36763;-81
2023/09/10 09:17:14;;;;;;;9.40;4.03;;;;;;;27.50;36.67;100120.06;7684581;32;40091;-82
2023/09/10 09:21:30;;;;;;;8.63;4.25;;;;;;;27.84;36.05;100115.31;7683558;32;38993;-82
2023/09/10 09:25:47;;;;;;;5.85;3.42;;;;;;;28.14;34.99;100116.47;7682015;32;38506;-81
2023/09/10 09:30:06;;;;;;;7.00;3.55;;;;;;;28.22;33.88;100109.75;7684309;32;37788;-83
2023/09/10 09:34:22;;;;;;;7.90;3.35;;;;;;;28.66;32.85;100103.38;7684311;32;39139;-82
2023/09/10 09:38:47;;;;;;;8.55;3.28;;;;;;;28.92;31.76;100105.19;7684139;32;40523;-82
2023/09/10 09:43:08;;;;;;;7.03;3.58;;;;;;;29.66;31.94;100103.25;7684170;32;38175;-82
2023/09/10 09:47:36;;;;;;;8.35;3.40;;;;;;;30.00;30.45;100093.78;7684104;32;37058;-82
2023/09/10 09:51:53;;;;;;;8.77;3.53;;;;;;;30.17;30.17;100087.41;7682881;32;39101;-81
2023/09/10 09:56:09;;;;;;;9.88;3.22;;;;;;;30.13;30.01;100081.78;7683286;32;39973;-82
2023/09/10 10:00:25;;;;;;;7.20;3.80;;;;;;;30.89;27.33;100082.66;7682910;32;38960;-83
2023/09/10 10:04:43;;;;;;;6.10;3.55;;;;;;;30.88;26.37;100081.03;7683527;32;38104;-83
2023/09/10 10:09:01;;;;;;;5.95;2.97;;;;;;;31.65;24.91;100079.69;7677521;32;39505;-82
2023/09/10 10:13:22;;;;;;;6.97;3.50;;;;;;;31.72;23.28;100074.03;7681577;32;39883;-83
2023/09/10 10:17:44;;;;;;;6.62;3.30;;;;;;;32.13;22.93;100062.16;7682104;32;37693;-84
2023/09/10 10:22:05;;;;;;;5.37;3.10;;;;;;;31.95;22.09;100061.44;7681986;32;37860;-82
2023/09/10 10:26:22;;;;;;;5.70;3.40;;;;;;;32.02;22.47;100058.56;7682206;32;39348;-82
2023/09/10 10:31:03;;;;;;;6.00;3.15;;;;;;;32.49;23.28;100049.78;7681573;32;39710;-83
2023/09/10 10:35:20;;;;;;;7.25;3.47;;;;;;;32.49;22.65;100042.12;7683064;32;37945;-83
2023/09/10 10:39:52;;;;;;;4.32;2.95;;;;;;;32.03;23.74;100040.44;7685100;32;37709;-82
2023/09/10 10:44:33;;;;;;;7.93;3.25;;;;;;;31.83;24.26;100043.75;7685289;32;40091;-83
2023/09/10 10:48:50;;;;;;;7.82;3.70;;;;;;;32.65;24.15;100032.34;7685475;32;39918;-84
2023/09/10 10:53:09;;;;;;;6.93;3.60;;;;;;;32.84;23.13;100030.94;7685280;32;38653;-84
2023/09/10 10:57:26;;;;;;;5.20;3.05;;;;;;;33.06;22.04;100035.12;7684651;32;37113;-82
2023/09/10 11:02:04;;;;;;;7.22;3.35;;;;;;;33.70;21.88;100029.97;7685604;32;38981;-85
2023/09/10 11:06:21;;;;;;;7.47;3.33;;;;;;;33.89;20.24;100020.03;7684688;32;40781;-85
2023/09/10 11:10:41;;;;;;;11.88;3.28;;;;;;;33.19;20.68;100012.84;7685457;32;38959;-86
2023/09/10 11:15:00;;;;;;;6.30;3.00;;;;;;;34.01;20.20;100008.16;7660397;32;38129;-86
2023/09/10 11:19:42;;;;;;;5.10;3.17;;;;;;;33.28;20.37;100007.47;7659689;32;38990;-84
2023/09/10 11:24:18;;;;;;;6.05;3.25;;;;;;;33.02;20.40;100014.63;7659360;32;40529;-84
2023/09/10 11:28:39;;;;;;;5.07;3.00;;;;;;;33.46;20.84;100010.09;7658794;32;37950;-84
2023/09/10 11:33:28;;;;;;;4.90;2.90;;;;;;;33.84;19.49;100010.00;7659387;32;39225;-83
2023/09/10 11:37:49;;;;;;;5.22;2.92;;;;;;;34.56;19.26;100006.03;7680767;32;39265;-83
2023/09/10 11:42:08;;;;;;;5.27;3.00;;;;;;;33.41;21.02;100004.09;7685437;32;39841;-85
2023/09/10 11:46:25;;;;;;;5.85;2.75;;;;;;;33.85;20.80;99991.00;7684854;32;38001;-84
2023/09/10 11:50:44;;;;;;;10.07;3.28;;;;;;;33.91;19.04;99983.66;7685427;32;37057;-85
2023/09/10 11:55:00;;;;;;;5.12;3.20;;;;;;;34.53;20.58;99986.28;7685474;32;39195;-85
2023/09/10 11:59:18;;;;;;;5.12;2.78;;;;;;;34.58;18.93;99980.94;7684934;32;40035;-85
2023/09/10 12:03:34;;;;;;;6.50;3.30;;;;;;;34.58;19.95;99966.81;7685281;32;38566;-85
2023/09/10 12:07:50;;;;;;;4.72;2.97;;;;;;;34.92;19.41;99970.63;7685396;32;36796;-85
2023/09/10 12:12:13;;;;;;;6.30;3.10;;;;;;;35.18;17.83;99966.84;7685331;32;40105;-85
2023/09/10 12:16:29;;;;;;;5.05;3.10;;;;;;;34.84;17.96;99966.34;7684178;32;40174;-84
2023/09/10 12:20:45;;;;;;;5.07;2.35;;;;;;;34.88;17.67;99964.25;7685154;32;37894;-85
2023/09/10 12:25:02;;;;;;;5.10;2.75;;;;;;;35.23;17.88;99961.94;7685284;32;37092;-85
2023/09/10 12:29:19;;;;;;;4.85;2.53;;;;;;;35.77;16.48;99955.09;7684080;32;39275;-82
2023/09/10 12:33:36;;;;;;;4.97;2.62;;;;;;;35.10;17.48;99953.25;7685035;32;40105;-82
2023/09/10 12:37:54;;;;;;;5.20;2.65;;;;;;;34.51;17.11;99958.41;7684218;32;37587;-86
2023/09/10 12:42:10;;;;;;;5.18;2.90;;;;;;;34.88;16.71;99947.25;7685226;32;37302;-87
2023/09/10 12:46:29;;;;;;;6.87;2.87;;;;;;;34.61;17.52;99948.13;7684956;32;39102;-86
2023/09/10 12:50:47;;;;;;;5.85;3.10;;;;;;;34.77;17.88;99951.09;7685004;32;38828;-81
2023/09/10 12:55:04;;;;;;;5.37;2.80;;;;;;;34.55;17.34;99947.06;7684790;32;38033;-83
2023/09/10 12:59:21;;;;;;;4.95;2.62;;;;;;;34.77;17.48;99947.44;7683065;32;37397;-80
2023/09/10 13:03:38;;;;;;;6.30;3.15;;;;;;;34.82;17.30;99944.12;7684805;32;39262;-83
2023/09/10 13:07:55;;;;;;;6.65;3.10;;;;;;;35.09;17.45;99934.69;7684410;32;39612;-82
2023/09/10 13:12:11;;;;;;;4.20;2.70;;;;;;;35.03;17.60;99925.91;7684342;32;38703;-80
2023/09/10 13:16:29;;;;;;;5.82;2.80;;;;;;;35.47;16.81;99925.78;7683899;32;37001;-85
2023/09/10 13:20:45;;;;;;;5.10;2.75;;;;;;;35.42;17.36;99927.09;7683394;32;39349;-84
2023/09/10 13:25:02;;;;;;;4.32;2.83;;;;;;;35.01;17.06;99928.38;7683780;32;40818;-84
2023/09/10 13:29:18;;;;;;;6.93;3.15;;;;;;;34.21;17.73;99925.41;7683685;32;38510;-82
2023/09/10 13:33:35;;;;;;;5.28;2.97;;;;;;;34.35;17.50;99928.00;7683986;32;37571;-81
2023/09/10 13:37:51;;;;;;;7.12;3.00;;;;;;;35.18;17.28;99921.50;7683746;32;39301;-81
2023/09/10 13:42:07;;;;;;;6.18;3.17;;;;;;;35.66;16.65;99915.63;7681680;32;40862;-81
2023/09/10 13:46:24;;;;;;;5.43;3.05;;;;;;;34.97;17.18;99916.31;7683166;32;37864;-84
2023/09/10 13:50:40;;;;;;;4.32;2.45;;;;;;;34.99;17.10;99917.47;7682529;32;36991;-83
2023/09/10 13:54:57;;;;;;;4.35;2.60;;;;;;;35.09;16.83;99906.38;7683126;32;39480;-84
2023/09/10 13:59:13;;;;;;;10.07;3.08;;;;;;;35.80;16.45;99897.50;7682766;32;40836;-82
2023/09/10 14:03:30;;;;;;;7.35;3.08;;;;;;;36.34;16.31;99896.97;7683392;32;38041;-82
2023/09/10 14:07:46;;;;;;;5.20;2.90;;;;;;;35.70;15.74;99902.16;7679398;32;37731;-81
2023/09/10 14:12:03;;;;;;;8.43;3.22;;;;;;;35.99;15.18;99898.66;7682782;32;39051;-82
2023/09/10 14:16:20;;;;;;;7.75;3.05;;;;;;;36.73;15.61;99894.28;7684092;32;40032;-82
2023/09/10 14:20:38;;;;;;;4.50;2.60;;;;;;;36.91;15.70;99897.41;7684632;32;38736;-82
2023/09/10 14:24:54;;;;;;;4.07;2.60;;;;;;;36.43;15.82;99893.47;7685423;32;37075;-83
2023/09/10 14:29:11;;;;;;;4.72;2.65;;;;;;;36.85;15.52;99890.69;7685237;32;38973;-82
2023/09/10 14:33:28;;;;;;;6.93;3.03;;;;;;;37.07;15.93;99895.72;7684882;32;40178;-83
2023/09/10 14:37:45;;;;;;;10.45;3.10;;;;;;;35.44;16.61;99898.31;7684615;32;38007;-84
2023/09/10 14:42:01;;;;;;;8.77;3.33;;;;;;;35.48;16.75;99890.53;7684684;32;37941;-85
2023/09/10 14:46:18;;;;;;;9.32;2.97;;;;;;;35.48;16.31;99882.03;7684721;32;39579;-85
2023/09/10 14:50:35;;;;;;;6.28;3.12;;;;;;;35.96;17.37;99877.63;7684504;32;40770;-86
2023/09/10 14:54:52;;;;;;;5.10;3.00;;;;;;;35.37;16.78;99887.16;7684239;32;37947;-84
2023/09/10 14:59:10;;;;;;;5.50;2.87;;;;;;;35.85;16.86;99880.75;7684352;32;37239;-85
2023/09/10 15:03:29;;;;;;;5.53;2.60;;;;;;;35.62;17.47;99878.09;7679759;32;38107;-84
2023/09/10 15:07:46;;;;;;;5.85;3.05;;;;;;;35.44;17.44;99884.94;7684512;32;39989;-84
2023/09/10 15:12:02;;;;;;;5.40;2.92;;;;;;;34.53;18.05;99881.56;7683712;32;38721;-84
2023/09/10 15:16:19;;;;;;;5.32;2.80;;;;;;;34.27;18.52;99881.25;7684615;32;37072;-86
2023/09/10 15:20:37;;;;;;;7.95;2.90;;;;;;;33.67;19.10;99878.22;7683523;32;40305;-84
2023/09/10 15:24:54;;;;;;;5.97;2.92;;;;;;;34.24;18.47;99870.81;7668900;32;39270;-84
2023/09/10 15:29:11;;;;;;;7.05;3.10;;;;;;;34.22;19.25;99871.25;7684054;32;37828;-84
2023/09/10 15:33:27;;;;;;;9.85;3.33;;;;;;;34.39;17.99;99866.50;7684229;32;37128;-85
2023/09/10 15:37:45;;;;;;;7.85;3.10;;;;;;;34.10;18.54;99868.19;7685743;32;39007;-82
2023/09/10 15:42:03;;;;;;;10.85;3.10;;;;;;;34.26;18.23;99862.69;7683612;32;39311;-85
2023/09/10 15:46:21;;;;;;;6.35;2.90;;;;;;;33.87;18.36;99858.50;7683860;32;38683;-84
2023/09/10 15:50:41;;;;;;;6.68;3.12;;;;;;;34.17;19.21;99856.78;7682792;32;37331;-81
2023/09/10 15:54:57;;;;;;;12.05;3.10;;;;;;;34.21;19.20;99860.38;7684420;32;40123;-84
2023/09/10 15:59:13;;;;;;;6.95;3.33;;;;;;;34.28;19.30;99856.59;7683661;32;40748;-83
2023/09/10 16:03:30;;;;;;;4.28;2.60;;;;;;;34.23;19.21;99852.25;7683836;32;37871;-82
2023/09/10 16:07:47;;;;;;;9.07;3.28;;;;;;;35.18;18.93;99853.53;7684754;32;37222;-82
2023/09/10 16:12:03;;;;;;;5.15;3.20;;;;;;;35.75;17.97;99847.78;7684645;32;39503;-81
2023/09/10 16:16:19;;;;;;;4.85;2.75;;;;;;;36.36;16.03;99848.25;7683181;32;41571;-83
2023/09/10 16:20:36;;;;;;;9.10;3.10;;;;;;;38.19;15.95;99836.09;7684401;32;37858;-84
2023/09/10 16:24:52;;;;;;;5.05;2.75;;;;;;;38.20;15.69;99837.69;7669660;32;37617;-84
2023/09/10 16:29:10;;;;;;;8.05;3.15;;;;;;;38.61;15.32;99844.34;7683543;32;39497;-83
2023/09/10 16:33:27;;;;;;;6.40;2.80;;;;;;;38.45;16.65;99845.31;7684068;32;39683;-83
2023/09/10 16:37:43;;;;;;;5.32;3.05;;;;;;;37.32;17.70;99858.03;7683306;32;38875;-84
2023/09/10 16:42:01;;;;;;;6.10;3.17;;;;;;;36.03;20.52;99863.28;7684883;32;37936;-83
2023/09/10 16:46:17;;;;;;;5.70;2.60;;;;;;;35.02;22.24;99869.69;7682292;32;40154;-85
2023/09/10 16:50:33;;;;;;;6.30;3.05;;;;;;;34.34;22.93;99869.81;7683067;32;39658;-84
2023/09/10 16:54:50;;;;;;;7.80;3.10;;;;;;;33.63;24.63;99872.59;7683162;32;38670;-83
2023/09/10 16:59:06;;;;;;;7.68;3.20;;;;;;;33.10;25.26;99866.47;7683258;32;37267;-84
2023/09/10 17:03:22;;;;;;;7.97;3.50;;;;;;;32.53;26.41;99865.16;7683805;32;40160;-83
2023/09/10 17:07:41;;;;;;;6.90;3.20;;;;;;;31.94;26.83;99874.59;7683169;32;40587;-83
2023/09/10 17:11:57;;;;;;;13.15;3.08;;;;;;;31.67;27.09;99865.13;7683741;32;36974;-84
2023/09/10 17:16:14;;;;;;;8.23;3.25;;;;;;;31.33;27.11;99874.19;7683070;32;38085;-82
2023/09/10 17:20:33;;;;;;;6.32;3.45;;;;;;;30.86;27.95;99883.62;7682840;32;40029;-80
2023/09/10 17:24:49;;;;;;;9.18;4.00;;;;;;;30.47;28.34;99886.56;7682146;32;41067;-81
2023/09/10 17:29:06;;;;;;;15.15;3.90;;;;;;;30.21;28.90;99888.59;7683120;32;37505;-80
2023/09/10 17:33:24;;;;;;;9.50;3.72;;;;;;;29.98;29.33;99896.63;7684183;32;36850;-80
2023/09/10 17:37:40;;;;;;;5.28;3.12;;;;;;;29.65;29.83;99898.59;7684255;32;39854;-79
2023/09/10 17:41:57;;;;;;;12.60;3.53;;;;;;;29.36;30.05;99898.56;7683069;32;39901;-80
2023/09/10 17:46:13;;;;;;;7.18;3.58;;;;;;;29.06;30.39;99902.41;7682775;32;38762;-82
2023/09/10 17:50:30;;;;;;;9.45;3.40;;;;;;;28.62;31.19;99904.22;7682465;32;37810;-82
2023/09/10 17:54:46;;;;;;;6.78;3.30;;;;;;;28.64;31.38;99903.84;7683774;32;39390;-82
2023/09/10 17:59:02;;;;;;;5.45;3.17;;;;;;;28.31;32.20;99904.81;7683711;32;40856;-82
2023/09/10 18:03:18;;;;;;;7.30;3.30;;;;;;;28.19;32.30;99903.91;7683141;32;37902;-83
2023/09/10 18:07:35;;;;;;;7.18;3.53;;;;;;;28.01;32.60;99916.97;7683176;32;37183;-82
2023/09/10 18:11:54;;;;;;;5.53;3.28;;;;;;;27.75;33.11;99912.31;7683127;32;39511;-80
2023/09/10 18:16:12;;;;;;;7.43;3.40;;;;;;;27.61;33.29;99924.97;7682870;32;39954;-84
2023/09/10 18:20:33;;;;;;;11.15;4.35;;;;;;;27.35;33.49;99926.75;7657193;32;36272;-87
2023/09/10 18:24:56;;;;;;;5.15;3.35;;;;;;;27.26;34.27;99940.19;7655732;32;37206;-87
2023/09/10 18:29:13;;;;;;;8.07;3.60;;;;;;;27.00;34.98;99943.06;7655468;32;38926;-79
2023/09/10 18:33:32;;;;;;;6.87;3.37;;;;;;;26.93;35.15;99946.56;7656470;32;40067;-79
2023/09/10 18:37:48;;;;;;;6.45;3.53;;;;;;;26.74;35.55;99947.50;7656272;32;38989;-79
2023/09/10 18:42:05;;;;;;;6.93;3.67;;;;;;;26.68;35.92;99954.59;7656420;32;37853;-79
2023/09/10 18:46:21;;;;;;;8.00;3.60;;;;;;;26.52;36.24;99949.94;7656096;32;39397;-78
2023/09/10 18:50:40;;;;;;;6.85;3.50;;;;;;;26.42;36.52;99954.19;7676522;32;40004;-78
2023/09/10 18:54:58;;;;;;;13.13;3.70;;;;;;;26.18;37.18;99952.63;7682524;32;37908;-77
2023/09/10 18:59:15;;;;;;;7.55;3.87;;;;;;;26.20;37.03;99955.84;7685792;32;36912;-78
2023/09/10 19:03:32;;;;;;;8.48;3.28;;;;;;;25.92;37.85;99958.09;7686083;32;39342;-77
2023/09/10 19:07:48;;;;;;;5.68;3.90;;;;;;;25.72;38.26;99960.94;7685972;32;40072;-77
2023/09/10 19:12:05;;;;;;;6.43;3.78;;;;;;;25.67;38.31;99953.69;7686026;32;38435;-78
2023/09/10 19:16:21;;;;;;;8.23;3.70;;;;;;;25.54;38.74;99960.59;7685936;32;37112;-81
2023/09/10 19:20:41;;;;;;;7.85;3.60;;;;;;;25.46;38.84;99959.66;7679174;32;40220;-80
2023/09/10 19:24:58;;;;;;;7.72;4.03;;;;;;;25.37;39.06;99956.31;7659427;32;41054;-77
2023/09/10 19:29:14;;;;;;;5.87;3.50;;;;;;;25.30;39.33;99956.13;7683158;32;37159;-78
2023/09/10 19:33:31;;;;;;;9.35;3.70;;;;;;;25.25;39.34;99951.69;7682786;32;37592;-78
2023/09/10 19:37:51;;;;;;;6.90;3.70;;;;;;;24.89;40.23;99950.09;7684013;32;40299;-76
2023/09/10 19:42:07;;;;;;;10.98;4.35;;;;;;;24.92;40.12;99952.97;7683525;32;40870;-77
2023/09/10 19:46:25;;;;;;;7.50;4.03;;;;;;;24.70;40.65;99950.88;7683137;32;37546;-77
2023/09/10 19:50:42;;;;;;;13.30;4.00;;;;;;;24.56;40.93;99945.78;7685582;32;37110;-79
2023/09/10 19:54:58;;;;;;;7.82;3.97;;;;;;;24.51;41.07;99946.03;7685554;32;39083;-79
2023/09/10 19:59:24;;;;;;;8.07;4.20;;;;;;;24.58;40.85;99951.78;7685406;32;40023;-79